Time;durP1;ratioP1;P1;durP2;ratioP2;P2;SDS_P1;SDS_P2;PMS_P1;PMS_P2;Temp;Humidity;BMP_temperature;BMP_pressure;BME280_temperature;BME280_humidity;BME280_pressure;Samples;Min_cycle;Max_cycle;Signal;HPM_P1;HPM_P2
2022/09/18 00:02:23;;;;;;;;;;;;;;;8.80;100.00;100066.66;5031096;28;19921;-84
2022/09/18 00:04:58;;;;;;;;;;;;;;;8.75;100.00;100066.69;5030818;28;20352;-85
2022/09/18 00:07:30;;;;;;;;;;;;;;;8.72;100.00;100069.97;5030686;28;19925;-85
2022/09/18 00:10:03;;;;;;;;;;;;;;;8.67;100.00;100067.28;5030916;28;19929;-83
2022/09/18 00:12:36;;;;;;;;;;;;;;;8.68;100.00;100072.41;5031164;28;19928;-86
2022/09/18 00:15:09;;;;;;;;;;;;;;;8.75;100.00;100069.38;5032788;28;19925;-85
2022/09/18 00:17:37;;;;;;;;;;;;;;;8.85;100.00;100066.63;5030195;28;19932;-85
2022/09/18 00:20:07;;;;;;;;;;;;;;;8.81;100.00;100071.00;5031848;28;19921;-85
2022/09/18 00:22:40;;;;;;;;;;;;;;;8.79;100.00;100064.22;5031057;28;19921;-87
2022/09/18 00:25:13;;;;;;;;;;;;;;;8.84;100.00;100066.91;5030485;28;19921;-86
2022/09/18 00:27:46;;;;;;;;;;;;;;;8.85;100.00;100068.50;5030215;28;19944;-88
2022/09/18 00:30:18;;;;;;;;;;;;;;;8.86;100.00;100064.69;5031250;28;19932;-86
2022/09/18 00:32:51;;;;;;;;;;;;;;;8.91;100.00;100072.81;5076510;28;19948;-86
2022/09/18 00:35:25;;;;;;;;;;;;;;;8.88;100.00;100072.56;5031916;28;19921;-86
2022/09/18 00:37:58;;;;;;;;;;;;;;;8.82;100.00;100072.63;5063261;28;19996;-84
2022/09/18 00:40:31;;;;;;;;;;;;;;;8.83;100.00;100074.22;5030329;28;19931;-88
2022/09/18 00:42:59;;;;;;;;;;;;;;;8.83;100.00;100078.84;5063560;28;20385;-85
2022/09/18 00:45:32;;;;;;;;;;;;;;;8.81;100.00;100087.25;5063251;28;19921;-88
2022/09/18 00:48:00;;;;;;;;;;;;;;;8.88;100.00;100086.13;5063223;28;19921;-86
2022/09/18 00:50:34;;;;;;;;;;;;;;;8.81;100.00;100081.84;5030393;28;19924;-85
2022/09/18 00:53:06;;;;;;;;;;;;;;;8.85;100.00;100084.78;5031894;28;19921;-84
2022/09/18 00:55:41;;;;;;;;;;;;;;;8.80;100.00;100074.00;5028793;28;19988;-90
2022/09/18 00:58:14;;;;;;;;;;;;;;;8.85;100.00;100076.63;5032972;28;19921;-88
2022/09/18 01:00:47;;;;;;;;;;;;;;;8.89;100.00;100088.53;5024226;28;20400;-86
2022/09/18 01:03:19;;;;;;;;;;;;;;;8.94;100.00;100080.38;5025722;28;19928;-89
2022/09/18 01:06:00;;;;;;;;;;;;;;;8.94;100.00;100085.00;5024268;28;19925;-86
2022/09/18 01:08:37;;;;;;;;;;;;;;;8.94;100.00;100085.81;5030427;28;19921;-85
2022/09/18 01:11:15;;;;;;;;;;;;;;;8.92;100.00;100079.88;5025024;28;19928;-88
2022/09/18 01:13:53;;;;;;;;;;;;;;;8.96;100.00;100086.34;5044485;28;20089;-88
2022/09/18 01:16:28;;;;;;;;;;;;;;;8.99;100.00;100084.94;5039690;28;19925;-85
2022/09/18 01:19:05;;;;;;;;;;;;;;;8.96;100.00;100091.78;5031042;28;19925;-87
2022/09/18 01:21:38;;;;;;;;;;;;;;;9.03;100.00;100096.84;5031052;28;19920;-84
2022/09/18 01:24:41;;;;;;;;;;;;;;;9.02;100.00;100093.34;5032601;28;20285;-85
2022/09/18 01:27:10;;;;;;;;;;;;;;;8.99;100.00;100082.22;4967908;28;19926;-85
2022/09/18 01:29:45;;;;;;;;;;;;;;;9.00;100.00;100090.13;5008510;28;19925;-85
2022/09/18 01:32:21;;;;;;;;;;;;;;;9.00;100.00;100087.41;5053141;28;20316;-87
2022/09/18 01:34:58;;;;;;;;;;;;;;;9.00;100.00;100087.41;5028087;28;20618;-87
2022/09/18 01:37:29;;;;;;;;;;;;;;;9.02;100.00;100092.53;5027959;28;19926;-85
2022/09/18 01:40:06;;;;;;;;;;;;;;;8.97;100.00;100087.16;5035296;28;19928;-86
2022/09/18 01:42:35;;;;;;;;;;;;;;;9.00;100.00;100092.00;5066436;28;19954;-86
2022/09/18 01:45:07;;;;;;;;;;;;;;;8.96;100.00;100088.22;5033539;28;20435;-90
2022/09/18 01:47:45;;;;;;;;;;;;;;;8.95;100.00;100087.44;5038789;28;19921;-85
2022/09/18 01:50:19;;;;;;;;;;;;;;;8.96;100.00;100091.78;5052098;28;19921;-85
2022/09/18 01:52:51;;;;;;;;;;;;;;;8.93;100.00;100094.22;5046554;28;19932;-88
2022/09/18 01:55:25;;;;;;;;;;;;;;;8.90;100.00;100083.94;5024894;28;19926;-89
2022/09/18 01:58:01;;;;;;;;;;;;;;;8.87;100.00;100085.31;5041932;28;20483;-86
2022/09/18 02:00:31;;;;;;;;;;;;;;;8.87;100.00;100084.53;5025666;28;19927;-85
2022/09/18 02:03:07;;;;;;;;;;;;;;;8.76;100.00;100079.16;5057897;28;20271;-87
2022/09/18 02:05:37;;;;;;;;;;;;;;;8.72;100.00;100088.16;5028688;28;19921;-84
2022/09/18 02:08:15;;;;;;;;;;;;;;;8.56;100.00;100080.13;5057457;28;19932;-83
2022/09/18 02:10:54;;;;;;;;;;;;;;;8.61;100.00;100081.97;5054942;28;20254;-87
2022/09/18 02:13:25;;;;;;;;;;;;;;;8.65;100.00;100083.03;5059525;28;20349;-86
2022/09/18 02:16:03;;;;;;;;;;;;;;;8.62;100.00;100081.69;5037234;28;19920;-86
2022/09/18 02:18:40;;;;;;;;;;;;;;;8.62;100.00;100081.69;5068566;28;19928;-86
2022/09/18 02:21:17;;;;;;;;;;;;;;;8.66;100.00;100082.75;5033596;28;20405;-87
2022/09/18 02:23:46;;;;;;;;;;;;;;;8.68;100.00;100068.91;5037846;28;20303;-87
2022/09/18 02:26:19;;;;;;;;;;;;;;;8.70;100.00;100077.59;5061588;28;19936;-86
2022/09/18 02:28:53;;;;;;;;;;;;;;;8.72;100.00;100074.59;5036306;28;19929;-84
2022/09/18 02:31:27;;;;;;;;;;;;;;;8.72;100.00;100074.59;5039204;28;19921;-86
2022/09/18 02:34:00;;;;;;;;;;;;;;;8.72;100.00;100069.16;5040026;28;19920;-86
2022/09/18 02:36:48;;;;;;;;;;;;;;;8.78;100.00;100073.44;5021923;28;19924;-86
2022/09/18 02:39:23;;;;;;;;;;;;;;;8.76;100.00;100067.50;5038800;28;19929;-86
2022/09/18 02:41:58;;;;;;;;;;;;;;;8.74;100.00;100064.25;5059001;28;20646;-86
2022/09/18 02:44:37;;;;;;;;;;;;;;;8.78;100.00;100068.00;5033016;28;19929;-86
2022/09/18 02:47:19;;;;;;;;;;;;;;;8.73;100.00;100063.44;5068639;28;19932;-85
2022/09/18 02:49:56;;;;;;;;;;;;;;;8.65;100.00;100069.47;5035511;28;20381;-85
2022/09/18 02:52:37;;;;;;;;;;;;;;;8.57;100.00;100065.44;5041693;28;19927;-86
2022/09/18 02:55:07;;;;;;;;;;;;;;;8.54;100.00;100071.44;5037005;28;19921;-86
2022/09/18 02:57:43;;;;;;;;;;;;;;;8.45;100.00;100068.53;5026755;28;19929;-85
2022/09/18 03:00:17;;;;;;;;;;;;;;;8.41;100.00;100072.84;5057674;28;19929;-86
2022/09/18 03:02:52;;;;;;;;;;;;;;;8.40;100.00;100067.72;5051704;28;19921;-86
2022/09/18 03:05:45;;;;;;;;;;;;;;;8.33;100.00;100070.72;5018232;28;20805;-85
2022/09/18 03:08:18;;;;;;;;;;;;;;;8.36;100.00;100064.75;5027356;28;20394;-86
2022/09/18 03:10:51;;;;;;;;;;;;;;;8.39;100.00;100066.09;5063349;28;19922;-85
2022/09/18 03:13:19;;;;;;;;;;;;;;;8.33;100.00;100063.41;5039133;28;19925;-85
2022/09/18 03:15:47;;;;;;;;;;;;;;;8.33;100.00;100060.69;5043438;28;20480;-85
2022/09/18 03:18:21;;;;;;;;;;;;;;;8.31;100.00;100067.47;5022279;28;19928;-87
2022/09/18 03:20:49;;;;;;;;;;;;;;;8.22;100.00;100059.13;5023629;28;19921;-86
2022/09/18 03:23:23;;;;;;;;;;;;;;;8.17;100.00;100051.84;5066641;28;20412;-88
2022/09/18 03:26:07;;;;;;;;;;;;;;;8.15;100.00;100053.19;5027501;28;19925;-85
2022/09/18 03:28:40;;;;;;;;;;;;;;;7.97;100.00;100051.94;5018264;28;20289;-84
2022/09/18 03:31:14;;;;;;;;;;;;;;;7.93;100.00;100043.53;5061364;28;20404;-88
2022/09/18 03:33:45;;;;;;;;;;;;;;;7.96;100.00;100051.09;5030036;28;19933;-86
2022/09/18 03:36:13;;;;;;;;;;;;;;;7.95;100.00;100043.25;5057724;28;19929;-83
2022/09/18 03:38:46;;;;;;;;;;;;;;;7.95;100.00;100054.09;5063878;28;19922;-85
2022/09/18 03:41:21;;;;;;;;;;;;;;;7.95;100.00;100051.38;5039368;28;19925;-85
2022/09/18 03:43:56;;;;;;;;;;;;;;;7.88;100.00;100050.88;5033722;28;20397;-87
2022/09/18 03:46:24;;;;;;;;;;;;;;;7.85;100.00;100052.25;5025027;28;20283;-86
2022/09/18 03:49:00;;;;;;;;;;;;;;;7.84;100.00;100047.91;5059230;28;20505;-84
2022/09/18 03:51:35;;;;;;;;;;;;;;;7.85;100.00;100052.25;5021922;28;19921;-85
2022/09/18 03:54:08;;;;;;;;;;;;;;;7.85;100.00;100046.81;5049074;28;19932;-85
2022/09/18 03:56:41;;;;;;;;;;;;;;;7.87;100.00;100055.50;5024363;28;19921;-85
2022/09/18 03:59:34;;;;;;;;;;;;;;;7.83;100.00;100046.31;5056318;28;19925;-84
2022/09/18 04:02:25;;;;;;;;;;;;;;;7.74;100.00;100047.97;5042117;28;19920;-83
2022/09/18 04:05:17;;;;;;;;;;;;;;;7.72;100.00;100039.28;5033026;28;19925;-84
2022/09/18 04:08:09;;;;;;;;;;;;;;;7.72;100.00;100040.09;5035101;28;19925;-85
2022/09/18 04:10:58;;;;;;;;;;;;;;;7.66;100.00;100030.38;5047572;28;19925;-86
2022/09/18 04:13:33;;;;;;;;;;;;;;;7.65;100.00;100045.00;5043867;28;19932;-84
2022/09/18 04:16:09;;;;;;;;;;;;;;;7.61;100.00;100042.03;5062015;28;19928;-86
2022/09/18 04:18:37;;;;;;;;;;;;;;;7.65;100.00;100045.81;5030861;28;19921;-87
2022/09/18 04:21:07;;;;;;;;;;;;;;;7.67;100.00;100050.94;5045344;28;20357;-89
2022/09/18 04:23:40;;;;;;;;;;;;;;;7.75;100.00;100046.88;5062135;28;19927;-86
2022/09/18 04:26:13;;;;;;;;;;;;;;;7.73;100.00;100036.28;5039877;28;20661;-85
2022/09/18 04:28:53;;;;;;;;;;;;;;;7.87;100.00;100049.25;5033273;28;19928;-87
2022/09/18 04:31:26;;;;;;;;;;;;;;;7.89;100.00;100047.09;5040525;28;19928;-86
2022/09/18 04:33:55;;;;;;;;;;;;;;;7.81;100.00;100057.41;5044355;28;19928;-89
2022/09/18 04:36:29;;;;;;;;;;;;;;;7.83;100.00;100054.44;5036663;28;19936;-85
2022/09/18 04:38:57;;;;;;;;;;;;;;;7.81;100.00;100051.97;5034821;28;20397;-85
2022/09/18 04:41:30;;;;;;;;;;;;;;;7.77;100.00;100064.44;5037401;28;19920;-87
2022/09/18 04:44:05;;;;;;;;;;;;;;;7.83;100.00;100057.16;5049851;28;20267;-87
2022/09/18 04:46:38;;;;;;;;;;;;;;;7.82;100.00;100053.59;5017894;28;19925;-86
2022/09/18 04:49:11;;;;;;;;;;;;;;;7.85;100.00;100046.03;5066786;28;19921;-86
2022/09/18 04:51:45;;;;;;;;;;;;;;;7.80;100.00;100047.66;5032564;28;19929;-86
2022/09/18 04:54:18;;;;;;;;;;;;;;;7.77;100.00;100053.63;5022505;28;19926;-87
2022/09/18 04:56:51;;;;;;;;;;;;;;;7.78;100.00;100046.31;5041231;28;19928;-89
2022/09/18 04:59:24;;;;;;;;;;;;;;;7.81;100.00;100060.09;5028317;28;19925;-87
2022/09/18 05:01:56;;;;;;;;;;;;;;;7.74;100.00;100056.09;5067326;28;19928;-85
2022/09/18 05:04:24;;;;;;;;;;;;;;;7.73;100.00;100060.66;5031421;28;19921;-88
2022/09/18 05:07:08;;;;;;;;;;;;;;;7.80;100.00;100052.25;5018183;28;20396;-88
2022/09/18 05:09:36;;;;;;;;;;;;;;;7.88;100.00;100056.31;5027901;28;19925;-85
2022/09/18 05:12:09;;;;;;;;;;;;;;;7.88;100.00;100057.09;5034825;28;19925;-86
2022/09/18 05:14:42;;;;;;;;;;;;;;;7.88;100.00;100054.38;5038720;28;19921;-85
2022/09/18 05:17:18;;;;;;;;;;;;;;;7.85;100.00;100054.94;5062593;28;19931;-85
2022/09/18 05:19:59;;;;;;;;;;;;;;;7.85;100.00;100054.94;5070572;28;20373;-86
2022/09/18 05:22:33;;;;;;;;;;;;;;;7.91;100.00;100056.56;5030476;28;19943;-84
2022/09/18 05:25:11;;;;;;;;;;;;;;;7.92;100.00;100046.53;5034861;28;19921;-85
2022/09/18 05:27:52;;;;;;;;;;;;;;;7.93;100.00;100043.53;5057511;28;19932;-85
2022/09/18 05:30:28;;;;;;;;;;;;;;;8.01;100.00;100053.00;5037737;28;19929;-85
2022/09/18 05:32:59;;;;;;;;;;;;;;;7.99;100.00;100058.69;5026591;28;19925;-88
2022/09/18 05:35:30;;;;;;;;;;;;;;;8.05;100.00;100058.66;5062236;28;19928;-87
2022/09/18 05:38:05;;;;;;;;;;;;;;;8.11;100.00;100052.94;5032866;28;19928;-87
2022/09/18 05:40:42;;;;;;;;;;;;;;;8.12;100.00;100051.84;5042414;28;19921;-86
2022/09/18 05:43:15;;;;;;;;;;;;;;;8.17;100.00;100053.72;5029660;28;19936;-86
2022/09/18 05:45:43;;;;;;;;;;;;;;;8.13;100.00;100055.38;5028076;28;20292;-87
2022/09/18 05:48:21;;;;;;;;;;;;;;;8.22;100.00;100056.41;5054582;28;20373;-86
2022/09/18 05:50:56;;;;;;;;;;;;;;;8.31;100.00;100057.47;5059821;28;19929;-85
2022/09/18 05:53:30;;;;;;;;;;;;;;;8.36;100.00;100059.31;5035322;28;19929;-87
2022/09/18 05:56:15;;;;;;;;;;;;;;;8.41;100.00;100070.13;5031227;28;19929;-86
2022/09/18 05:58:48;;;;;;;;;;;;;;;8.44;100.00;100064.16;5049901;28;19948;-84
2022/09/18 06:01:17;;;;;;;;;;;;;;;8.51;100.00;100074.72;5034216;28;19921;-86
2022/09/18 06:04:25;;;;;;;;;;;;;;;8.53;100.00;100075.22;5051338;28;19929;-83
2022/09/18 06:07:01;;;;;;;;;;;;;;;8.58;100.00;100085.25;5062364;28;19921;-85
2022/09/18 06:09:31;;;;;;;;;;;;;;;8.60;100.00;100086.56;5029454;28;19920;-86
2022/09/18 06:12:04;;;;;;;;;;;;;;;8.68;100.00;100085.19;5054710;28;19930;-84
2022/09/18 06:14:35;;;;;;;;;;;;;;;8.60;100.00;100083.84;5020519;28;19920;-84
2022/09/18 06:17:08;;;;;;;;;;;;;;;8.59;100.00;100090.41;5038922;28;19928;-86
2022/09/18 06:19:36;;;;;;;;;;;;;;;8.56;100.00;100079.28;5048045;28;19921;-87
2022/09/18 06:22:09;;;;;;;;;;;;;;;8.51;100.00;100077.44;5022385;28;19932;-84
2022/09/18 06:24:38;;;;;;;;;;;;;;;8.58;100.00;100077.91;5034483;28;19925;-81
2022/09/18 06:27:16;;;;;;;;;;;;;;;8.65;100.00;100074.91;5031550;28;19925;-84
2022/09/18 06:29:49;;;;;;;;;;;;;;;8.79;100.00;100075.88;5024894;28;19932;-84
2022/09/18 06:32:27;;;;;;;;;;;;;;;8.94;100.00;100076.88;5068043;28;19928;-83
2022/09/18 06:35:00;;;;;;;;;;;;;;;9.02;100.00;100079.78;5051492;28;19921;-82
2022/09/18 06:37:33;;;;;;;;;;;;;;;9.04;100.00;100078.69;5047647;28;19930;-86
2022/09/18 06:40:20;;;;;;;;;;;;;;;9.13;100.00;100074.28;5056967;28;20301;-84
2022/09/18 06:43:11;;;;;;;;;;;;;;;9.31;100.00;100078.19;5018481;28;19921;-86
2022/09/18 06:46:10;;;;;;;;;;;;;;;9.47;100.00;100079.66;5067108;28;19921;-85
2022/09/18 06:48:47;;;;;;;;;;;;;;;9.56;100.00;100081.75;5031479;28;19925;-87
2022/09/18 06:51:20;;;;;;;;;;;;;;;9.60;100.00;100078.16;5024683;28;19925;-85
2022/09/18 06:54:05;;;;;;;;;;;;;;;9.60;100.00;100085.47;5041190;28;19932;-86
2022/09/18 06:56:40;;;;;;;;;;;;;;;9.49;100.00;100079.34;5034210;28;19925;-86
2022/09/18 06:59:14;;;;;;;;;;;;;;;9.56;100.00;100077.09;5013317;28;19929;-86
2022/09/18 07:01:42;;;;;;;;;;;;;;;9.37;100.00;100068.88;5017336;28;20286;-85
2022/09/18 07:04:27;;;;;;;;;;;;;;;9.35;100.00;100076.50;5043710;28;20285;-81
2022/09/18 07:07:00;;;;;;;;;;;;;;;9.26;100.00;100072.78;5041798;28;19936;-89
2022/09/18 07:09:33;;;;;;;;;;;;;;;9.20;100.00;100072.03;5060396;28;19921;-89
2022/09/18 07:12:12;;;;;;;;;;;;;;;9.18;100.00;100066.88;5045144;28;19932;-85
2022/09/18 07:14:45;;;;;;;;;;;;;;;9.25;100.00;100074.69;5038931;28;19925;-81
2022/09/18 07:17:19;;;;;;;;;;;;;;;9.31;100.00;100065.41;5025207;28;19925;-83
2022/09/18 07:19:53;;;;;;;;;;;;;;;9.43;100.00;100072.34;5044034;28;19929;-85
2022/09/18 07:22:36;;;;;;;;;;;;;;;9.52;100.00;100076.84;5059524;28;20384;-84
2022/09/18 07:25:10;;;;;;;;;;;;;;;9.71;100.00;100073.41;5038410;28;19928;-84
2022/09/18 07:27:43;;;;;;;;;;;;;;;9.69;100.00;100081.03;5026346;28;19943;-81
2022/09/18 07:30:17;;;;;;;;;;;;;;;9.73;100.00;100075.84;5054655;28;19932;-85
2022/09/18 07:32:53;;;;;;;;;;;;;;;9.60;100.00;100086.31;5053247;28;20393;-87
2022/09/18 07:35:31;;;;;;;;;;;;;;;9.52;100.00;100076.84;5060841;28;19928;-87
2022/09/18 07:38:06;;;;;;;;;;;;;;;9.43;100.00;100070.47;5020462;28;19925;-83
2022/09/18 07:40:52;;;;;;;;;;;;;;;9.60;100.00;100075.44;5023201;28;19928;-83
2022/09/18 07:43:32;;;;;;;;;;;;;;;9.52;100.00;100082.28;5043289;28;20278;-83
2022/09/18 07:46:06;;;;;;;;;;;;;;;9.63;100.00;100082.19;5039510;28;19921;-83
2022/09/18 07:48:40;;;;;;;;;;;;;;;9.80;100.00;100079.03;5021929;28;19932;-87
2022/09/18 07:51:17;;;;;;;;;;;;;;;9.92;100.00;100084.84;5036996;28;19921;-85
2022/09/18 07:53:50;;;;;;;;;;;;;;;10.11;100.00;100073.19;5056206;28;19925;-83
2022/09/18 07:56:25;;;;;;;;;;;;;;;10.15;100.00;100064.19;5034522;28;19929;-84
2022/09/18 07:59:00;;;;;;;;;;;;;;;10.15;100.00;100068.78;5048789;28;19936;-83
2022/09/18 08:01:33;;;;;;;;;;;;;;;10.06;100.00;100074.09;5056536;28;20408;-82
2022/09/18 08:04:05;;;;;;;;;;;;;;;10.21;100.00;100087.47;5027135;28;19925;-83
2022/09/18 08:06:35;;;;;;;;;;;;;;;10.43;100.00;100088.06;5021894;28;19944;-85
2022/09/18 08:09:11;;;;;;;;;;;;;;;10.34;100.00;100076.97;5028279;28;19931;-83
2022/09/18 08:12:16;;;;;;;;;;;;;;;10.35;100.00;100065.84;5028122;28;19929;-85
2022/09/18 08:15:09;;;;;;;;;;;;;;;10.19;100.00;100073.38;5046308;28;19959;-82
2022/09/18 08:17:58;;;;;;;;;;;;;;;9.96;100.00;100071.50;5032153;28;19932;-83
2022/09/18 08:20:50;;;;;;;;;;;;;;;9.92;100.00;100070.47;5059772;28;19924;-82
2022/09/18 08:23:29;;;;;;;;;;;;;;;9.93;100.00;100075.59;5051761;28;19929;-83
2022/09/18 08:26:04;;;;;;;;;;;;;;;9.98;100.00;100063.84;5054084;28;20389;-85
2022/09/18 08:28:37;;;;;;;;;;;;;;;10.05;100.00;100083.34;5024886;28;19925;-83
2022/09/18 08:31:07;;;;;;;;;;;;;;;10.18;100.00;100077.19;5026131;28;20444;-83
2022/09/18 08:33:40;;;;;;;;;;;;;;;10.29;100.00;100075.16;5034841;28;19925;-82
2022/09/18 08:36:13;;;;;;;;;;;;;;;10.42;100.00;100073.63;5039241;28;19922;-83
2022/09/18 08:38:54;;;;;;;;;;;;;;;10.47;100.00;100061.91;5063960;28;19928;-83
2022/09/18 08:41:47;;;;;;;;;;;;;;;10.57;100.00;100067.16;5033700;28;19921;-83
2022/09/18 08:44:23;;;;;;;;;;;;;;;10.43;100.00;100077.97;5068802;28;19932;-84
2022/09/18 08:47:02;;;;;;;;;;;;;;;10.46;100.00;100082.84;5053909;28;19946;-83
2022/09/18 08:49:32;;;;;;;;;;;;;;;10.57;100.00;100079.97;5042321;28;19928;-82
2022/09/18 08:52:13;;;;;;;;;;;;;;;10.61;100.00;100075.56;5018339;28;20377;-83
2022/09/18 08:54:48;;;;;;;;;;;;;;;10.60;100.00;100079.38;5023356;28;19924;-81
2022/09/18 08:57:33;;;;;;;;;;;;;;;10.35;100.00;100059.59;5027488;28;19932;-85
2022/09/18 09:00:14;;;;;;;;;;;;;;;10.57;100.00;100069.91;5051848;28;20326;-83
2022/09/18 09:03:18;;;;;;;;;;;;;;;10.72;100.00;100056.06;5027219;28;19921;-83
2022/09/18 09:05:52;;;;;;;;;;;;;;;10.83;100.00;100048.53;5020933;28;19955;-83
2022/09/18 09:08:42;;;;;;;;;;;;;;;10.87;100.00;100046.84;5041938;28;19925;-84
2022/09/18 09:11:21;;;;;;;;;;;;;;;10.95;100.00;100044.53;5046645;28;19928;-82
2022/09/18 09:14:19;;;;;;;;;;;;;;;10.94;100.00;100046.47;5032040;28;19924;-84
2022/09/18 09:16:55;;;;;;;;;;;;;;;10.94;100.00;100038.28;5070628;28;20695;-86
2022/09/18 09:19:35;;;;;;;;;;;;;;;10.99;100.00;100032.78;5043921;28;19920;-84
2022/09/18 09:22:16;;;;;;;;;;;;;;;11.08;100.00;100037.53;5056802;28;19921;-85
2022/09/18 09:24:56;;;;;;;;;;;;;;;11.23;100.00;100043.50;5066813;28;19921;-83
2022/09/18 09:27:53;;;;;;;;;;;;;;;11.49;100.00;100043.03;5021519;28;20417;-83
2022/09/18 09:30:47;;;;;;;;;;;;;;;11.65;100.00;100050.91;5035935;28;19927;-88
2022/09/18 09:33:52;;;;;;;;;;;;;;;11.35;100.00;100055.81;5028456;28;20385;-82
2022/09/18 09:36:50;;;;;;;;;;;;;;;11.17;100.00;100049.34;5028162;28;19947;-84
2022/09/18 09:42:12;;;;;;;;;;;;;;;10.89;100.00;100071.03;5058574;28;19972;-85
2022/09/18 09:44:43;;;;;;;;;;;;;;;10.64;100.00;100062.16;5041398;28;20297;-88
2022/09/18 09:47:23;;;;;;;;;;;;;;;10.41;100.00;100063.06;5046013;28;19924;-84
2022/09/18 09:50:02;;;;;;;;;;;;;;;10.38;100.00;100062.56;5036508;28;19925;-82
2022/09/18 09:52:39;;;;;;;;;;;;;;;10.17;100.00;100055.72;5037551;28;20000;-83
2022/09/18 09:55:18;;;;;;;;;;;;;;;10.05;100.00;100050.72;5031372;28;20370;-88
2022/09/18 09:57:51;;;;;;;;;;;;;;;10.10;100.00;100045.22;5026931;28;19925;-82
2022/09/18 10:00:25;;;;;;;;;;;;;;;10.07;100.00;100044.97;5029134;28;19925;-81
2022/09/18 10:03:17;;;;;;;;;;;;;;;10.13;100.00;100044.63;5032669;28;19925;-82
2022/09/18 10:05:56;;;;;;;;;;;;;;;10.37;100.00;100044.59;5051044;28;19928;-83
2022/09/18 10:08:32;;;;;;;;;;;;;;;10.43;100.00;100039.09;5007414;28;20853;-82
2022/09/18 10:11:02;;;;;;;;;;;;;;;10.36;100.00;100040.25;5027257;28;20346;-83
2022/09/18 10:13:39;;;;;;;;;;;;;;;10.47;100.00;100031.97;5025827;28;20333;-80
2022/09/18 10:16:15;;;;;;;;;;;;;;;10.45;100.00;100036.88;4999598;28;19936;-81
2022/09/18 10:18:49;;;;;;;;;;;;;;;10.68;100.00;100035.19;5012815;28;19928;-81
2022/09/18 10:21:26;;;;;;;;;;;;;;;10.89;100.00;100041.09;5031258;28;19929;-84
2022/09/18 10:24:05;;;;;;;;;;;;;;;11.00;100.00;100036.28;5007699;28;19929;-83
2022/09/18 10:26:40;;;;;;;;;;;;;;;10.97;100.00;100034.16;5002969;28;19929;-84
2022/09/18 10:29:13;;;;;;;;;;;;;;;11.03;100.00;100046.56;5002097;28;19928;-82
2022/09/18 10:31:49;;;;;;;;;;;;;;;11.01;100.00;100030.53;5007609;28;20370;-82
2022/09/18 10:34:31;;;;;;;;;;;;;;;11.10;100.00;100025.22;5001203;28;19960;-84
2022/09/18 10:36:59;;;;;;;;;;;;;;;11.11;100.00;100026.03;5000628;28;19936;-84
2022/09/18 10:39:29;;;;;;;;;;;;;;;11.19;100.00;100015.25;5035250;28;20406;-86
2022/09/18 10:42:01;;;;;;;;;;;;;;;11.23;100.00;100019.00;5029745;28;19929;-85
2022/09/18 10:44:30;;;;;;;;;;;;;;;11.53;100.00;100015.97;5033747;28;20329;-83
2022/09/18 10:47:09;;;;;;;;;;;;;;;11.70;100.00;100009.94;5016932;28;19936;-82
2022/09/18 10:49:49;;;;;;;;;;;;;;;11.65;100.00;99989.03;5020420;28;19929;-82
2022/09/18 10:52:25;;;;;;;;;;;;;;;11.57;100.00;100009.66;5020181;28;19935;-83
2022/09/18 10:55:13;;;;;;;;;;;;;;;11.50;100.00;100006.53;4996322;28;19925;-84
2022/09/18 10:58:07;;;;;;;;;;;;;;;11.41;100.00;100013.78;5007781;28;19948;-83
2022/09/18 11:00:48;;;;;;;;;;;;;;;11.29;100.00;100006.06;5001729;28;19929;-83
2022/09/18 11:03:25;;;;;;;;;;;;;;;11.33;100.00;99996.19;5005725;28;20386;-82
2022/09/18 11:05:59;;;;;;;;;;;;;;;11.34;100.00;99995.09;5016120;28;19929;-82
2022/09/18 11:08:35;;;;;;;;;;;;;;;11.54;100.00;99985.69;5030707;28;19929;-84
2022/09/18 11:11:12;;;;;;;;;;;;;;;11.72;100.00;99975.00;5002297;28;19925;-81
2022/09/18 11:13:49;;;;;;;;;;;;;;;11.65;100.00;99960.97;5003959;28;19929;-81
2022/09/18 11:16:26;;;;;;;;;;;;;;;11.89;100.00;99963.44;4999613;28;19929;-85
2022/09/18 11:19:07;;;;;;;;;;;;;;;11.99;100.00;99957.03;4996064;28;19929;-82
2022/09/18 11:21:45;;;;;;;;;;;;;;;12.05;100.00;99956.56;4999280;28;19925;-81
2022/09/18 11:24:22;;;;;;;;;;;;;;;12.33;100.00;99953.78;5001945;28;19951;-80
2022/09/18 11:27:22;;;;;;;;;;;;;;;12.33;100.00;99958.41;5036801;28;19928;-81
2022/09/18 11:30:12;;;;;;;;;;;;;;;12.01;100.00;99955.56;4998539;28;19929;-81
2022/09/18 11:32:46;;;;;;;;;;;;;;;11.73;100.00;99993.78;5003245;28;19936;-82
2022/09/18 11:35:16;;;;;;;;;;;;;;;10.30;100.00;100003.34;4993085;28;20150;-82
2022/09/18 11:37:51;;;;;;;;;;;;;;;9.84;100.00;100001.25;5012139;28;19936;-83
2022/09/18 11:40:26;;;;;;;;;;;;;;;9.72;100.00;99996.22;5013239;28;20461;-84
2022/09/18 11:43:04;;;;;;;;;;;;;;;9.48;100.00;100001.69;5003220;28;19929;-84
2022/09/18 11:45:46;;;;;;;;;;;;;;;9.60;100.00;99993.94;4998686;28;19929;-83
2022/09/18 11:48:25;;;;;;;;;;;;;;;9.74;100.00;99980.44;5028620;28;19935;-83
2022/09/18 11:51:00;;;;;;;;;;;;;;;10.01;100.00;99979.00;5037093;28;20305;-84
2022/09/18 11:53:38;;;;;;;;;;;;;;;10.15;100.00;99970.91;5013887;28;19929;-85
2022/09/18 11:56:14;;;;;;;;;;;;;;;10.19;100.00;99982.81;5012062;28;20373;-83
2022/09/18 11:58:45;;;;;;;;;;;;;;;10.18;100.00;99975.78;5011994;28;20469;-84
2022/09/18 12:01:27;;;;;;;;;;;;;;;10.35;100.00;99972.56;5033886;28;19936;-85
2022/09/18 12:03:57;;;;;;;;;;;;;;;10.57;100.00;99971.94;4995627;28;21161;-86
2022/09/18 12:06:34;;;;;;;;;;;;;;;10.77;100.00;99969.97;4993655;28;19929;-85
2022/09/18 12:09:14;;;;;;;;;;;;;;;10.63;100.00;99973.47;5000197;28;19929;-83
2022/09/18 12:11:45;;;;;;;;;;;;;;;10.67;100.00;99982.66;4996857;28;19940;-85
2022/09/18 12:14:22;;;;;;;;;;;;;;;10.88;100.00;99979.59;5006512;28;20583;-83
2022/09/18 12:17:11;;;;;;;;;;;;;;;10.92;100.00;99975.16;5018626;28;19936;-83
2022/09/18 12:19:41;;;;;;;;;;;;;;;11.14;100.00;99962.78;5028117;28;19928;-82
2022/09/18 12:22:14;;;;;;;;;;;;;;;11.06;100.00;99975.19;5010304;28;21015;-83
2022/09/18 12:24:43;;;;;;;;;;;;;;;10.37;100.00;100009.25;5025940;28;19928;-84
2022/09/18 12:27:23;;;;;;;;;;;;;;;9.44;100.00;99987.84;5002014;28;19932;-84
2022/09/18 12:30:10;;;;;;;;;;;;;;;8.96;100.00;99990.53;5027965;28;19936;-85
2022/09/18 12:33:01;;;;;;;;;;;;;;;8.87;100.00;99974.06;5036253;28;19929;-85
2022/09/18 12:35:43;;;;;;;;;;;;;;;8.68;100.00;99965.81;5028397;28;20313;-82
2022/09/18 12:38:23;;;;;;;;;;;;;;;8.74;100.00;99964.69;4996068;28;20460;-87
2022/09/18 12:41:00;;;;;;;;;;;;;;;8.83;100.00;99959.47;4994539;28;20610;-83
2022/09/18 12:43:46;;;;;;;;;;;;;;;8.90;100.00;99964.56;5028710;28;19925;-84
2022/09/18 12:46:33;;;;;;;;;;;;;;;8.99;100.00;99954.66;5004404;28;19931;-85
2022/09/18 12:49:14;;;;;;;;;;;;;;;9.14;100.00;99957.25;5000039;28;20393;-85
2022/09/18 12:51:48;;;;;;;;;;;;;;;9.36;100.00;99951.31;5006176;28;20352;-84
2022/09/18 12:54:52;;;;;;;;;;;;;;;9.58;100.00;99955.38;4995841;28;19929;-84
2022/09/18 12:57:39;;;;;;;;;;;;;;;9.72;100.00;99950.03;4996415;28;20884;-82
2022/09/18 13:00:13;;;;;;;;;;;;;;;9.87;100.00;99955.28;5018088;28;19932;-86
2022/09/18 13:02:51;;;;;;;;;;;;;;;9.90;100.00;99962.03;5005311;28;20602;-84
2022/09/18 13:05:27;;;;;;;;;;;;;;;10.06;100.00;99972.69;4999709;28;20323;-86
2022/09/18 13:08:05;;;;;;;;;;;;;;;10.04;100.00;99975.72;5024948;28;19936;-85
2022/09/18 13:10:36;;;;;;;;;;;;;;;10.07;100.00;99957.97;5033011;28;19929;-85
2022/09/18 13:13:13;;;;;;;;;;;;;;;10.01;100.00;99984.44;5004636;28;19936;-83
2022/09/18 13:15:48;;;;;;;;;;;;;;;10.00;100.00;99971.97;4997037;28;19928;-85
2022/09/18 13:18:26;;;;;;;;;;;;;;;10.06;100.00;99959.09;5030495;28;19936;-85
2022/09/18 13:20:56;;;;;;;;;;;;;;;9.97;100.00;99978.78;5003526;28;19929;-86
2022/09/18 13:23:32;;;;;;;;;;;;;;;9.95;100.00;99970.09;5004170;28;20372;-83
2022/09/18 13:26:06;;;;;;;;;;;;;;;9.85;100.00;99962.09;4995150;28;19929;-85
2022/09/18 13:28:40;;;;;;;;;;;;;;;9.95;100.00;99963.88;4994054;28;19940;-84